St. Anthony Airport

Airport
ICAO code: 
CYAY
IATA Code: 
YAY
Summary
ICAO Region: 
NAM
Territory: 
Location: 
St. Anthony, Newfoundland
Serving: 
St. Anthony
Elevation: 
108 ft
Coordinates: 
Aerial View: 
51° 29' 28.896" N, 55° 48' 48.132" W
Metar
Observation
CYAY 271900Z AUTO 13015G20KT 9SM BKN005 BKN081 OVC095 07/06 A2941 RMK SLP963
Station
Saint Anthony Airport
Date/Time
2021-11-27 19:00:00
Wind direction
130°
Wind speed
15 kts
Lowest cloud amount
broken clouds
Temperature
7°C
Dew point
6°C
Humidity
93%
Weather condition
n/a

Description

Newfoundland and Labrador is home to a variety of climates and weather. One of the main reasons for this diversity is the geography of the province. The island portion of the province spans 5 degrees of latitude, which is comparable to that of the Great Lakes. The province has been divided into six climate types, but in broader terms Newfoundland has a cool summer subtype of a humid continental climate, which is greatly influenced by the sea since no part of the island is more than 100 km from the ocean. Northern Labrador is classified as a polar tundra climate, southern Labrador has a subarctic climate.

Climatology

Subarctic climate (Köppen climate classification Dfb) - long, usually very cold winters, and short, cool to mild summers.

Runways

Designator Length Width Surface Rops
10/28 1219 30 ASP No/No
Airport map: 
Aerial View: 

SKYbrary Partners:

Safety knowledge contributed by: